Observations for VENEZIA TESSERA, Italy (LIPZ)

LIPZ 191950Z 05006KT 9999 SCT016 SCT040 17/16 Q1016 NOSIG   
LIPZ 191920Z 06005KT CAVOK 17/16 Q1016 NOSIG
LIPZ 191850Z 06004KT CAVOK 17/16 Q1016 NOSIG
LIPZ 191820Z 06004KT CAVOK 17/15 Q1016 NOSIG
LIPZ 191750Z 06004KT CAVOK 18/16 Q1016 NOSIG
LIPZ 191720Z 08003KT CAVOK 18/16 Q1016 NOSIG
LIPZ 191650Z 10004KT CAVOK 18/16 Q1016 NOSIG
LIPZ 191620Z 13004KT 9999 SCT069 19/16 Q1016 NOSIG  
LIPZ 191550Z 12005KT CAVOK 19/16 Q1015 NOSIG
LIPZ 191520Z 12005KT CAVOK 20/16 Q1016 NOSIG
LIPZ 191450Z 11003KT CAVOK 20/17 Q1016 NOSIG
LIPZ 191420Z 12005KT 9999 SCT070 20/17 Q1016 NOSIG  
LIPZ 191350Z 12004KT 9999 SCT040 20/16 Q1016 NOSIG  
LIPZ 191320Z 13004KT 9999 BKN040 20/16 Q1016 NOSIG  
LIPZ 191250Z 13005KT 9999 FEW020 SCT060 20/15 Q1016 NOSIG   
LIPZ 191220Z 10006KT 9999 FEW020 SCT070 21/15 Q1016 NOSIG   
LIPZ 191150Z 09005KT 9999 FEW020 21/14 Q1016 NOSIG  
LIPZ 191120Z 09005KT 070V130 9999 FEW020 20/14 Q1016 NOSIG  
LIPZ 191050Z 08004KT 050V120 9999 FEW020 21/14 Q1016 NOSIG  
LIPZ 191020Z 07005KT 040V100 9999 FEW020 20/15 Q1016 NOSIG  
LIPZ 190950Z 08005KT 9999 FEW020 19/16 Q1016 NOSIG  
LIPZ 190920Z 08005KT 7000 FEW020 19/16 Q1016 NOSIG  
LIPZ 190850Z 06005KT 6000 FEW020 19/16 Q1016 NOSIG  
LIPZ 190820Z 06005KT 5000 BR FEW015 18/15 Q1016 NOSIG   
LIPZ 190750Z 07005KT 5000 BR FEW015 16/15 Q1016 NOSIG   
LIPZ 190720Z 04007KT 5000 BR FEW015 SCT040 16/14 Q1016 NOSIG
LIPZ 190650Z 05006KT 5000 BR FEW015 15/14 Q1016 TEMPO 2500 BR   
LIPZ 190620Z 03005KT 5000 2000E BR FEW015 15/13 Q1016 TEMPO 2500 BR 
LIPZ 190550Z 03006KT 5000 2000E BR FEW015 15/13 Q1015 TEMPO 2500 BR 
LIPZ 190520Z 04006KT 5000 BR FEW015 14/13 Q1016 TEMPO 2500 BR   
LIPZ 190450Z 03005KT 7000 FEW018 14/13 Q1015 NOSIG  
LIPZ 190420Z 04005KT 8000 FEW020 14/13 Q1016 NOSIG  
LIPZ 190350Z 03004KT CAVOK 14/13 Q1016 NOSIG
LIPZ 190320Z 05004KT CAVOK 14/13 Q1016 NOSIG
LIPZ 190250Z 06003KT CAVOK 14/13 Q1016 NOSIG
LIPZ 190220Z 02004KT 9999 FEW070 15/13 Q1016 NOSIG  
LIPZ 190150Z 01004KT 9999 FEW070 15/13 Q1016 NOSIG  
LIPZ 190120Z 05003KT 9999 SCT070 15/14 Q1016 NOSIG  
LIPZ 190050Z 08002KT 9999 SCT070 15/13 Q1016 NOSIG  
LIPZ 190020Z 03002KT 9999 SCT060 15/13 Q1016 NOSIG  
LIPZ 182350Z 04003KT 9999 FEW050 15/14 Q1016 NOSIG  
LIPZ 182320Z 02003KT 9999 SCT050 16/14 Q1017 NOSIG  
LIPZ 182250Z 33002KT 9999 SCT050 16/14 Q1016 NOSIG  
LIPZ 182220Z 25003KT 9999 FEW065 16/14 Q1017 NOSIG  
LIPZ 182150Z 27003KT 240V300 9999 FEW070 17/14 Q1017 NOSIG  
LIPZ 182120Z 24004KT 9999 FEW070 17/14 Q1017 NOSIG  
LIPZ 182050Z VRB02KT 9999 SCT070 17/14 Q1017 NOSIG  
LIPZ 182020Z 22003KT 9999 SCT070 17/14 Q1017 NOSIG  
LIPZ 181950Z 20002KT 9999 SCT070 17/13 Q1017 NOSIG  
LIPZ 181920Z 26003KT 9999 FEW070 17/13 Q1017 NOSIG